Time;durP1;ratioP1;P1;durP2;ratioP2;P2;SDS_P1;SDS_P2;PMS_P1;PMS_P2;Temp;Humidity;BMP_temperature;BMP_pressure;BME280_temperature;BME280_humidity;BME280_pressure;Samples;Min_cycle;Max_cycle;Signal;HPM_P1;HPM_P2
2023/07/28 00:01:11;;;;;;;5.63;5.13;;;;;;;17.59;100.00;100350.78;5008532;28;20072;-78
2023/07/28 00:03:38;;;;;;;6.53;5.38;;;;;;;17.59;100.00;100350.78;5009882;28;20084;-78
2023/07/28 00:06:05;;;;;;;5.88;5.10;;;;;;;17.59;100.00;100347.25;5009773;28;20044;-79
2023/07/28 00:08:32;;;;;;;6.47;5.38;;;;;;;17.60;100.00;100341.81;4989690;28;20046;-80
2023/07/28 00:10:59;;;;;;;6.85;5.28;;;;;;;17.60;100.00;100343.66;5008656;28;20124;-79
2023/07/28 00:13:26;;;;;;;5.35;4.85;;;;;;;17.60;100.00;100338.31;4988956;28;20245;-80
2023/07/28 00:15:53;;;;;;;4.80;4.40;;;;;;;17.57;100.00;100339.34;4996885;28;20034;-78
2023/07/28 00:18:21;;;;;;;5.15;4.60;;;;;;;17.59;100.00;100337.44;5006933;28;20076;-80
2023/07/28 00:20:48;;;;;;;6.53;5.10;;;;;;;17.60;100.00;100336.50;4991502;28;20041;-80
2023/07/28 00:23:16;;;;;;;6.13;5.00;;;;;;;17.61;100.00;100334.66;5003682;28;20041;-79
2023/07/28 00:25:43;;;;;;;4.70;4.30;;;;;;;17.61;100.00;100334.66;4993024;28;20044;-80
2023/07/28 00:28:10;;;;;;;4.45;4.05;;;;;;;17.60;100.00;100333.81;4997971;28;20046;-80
2023/07/28 00:30:37;;;;;;;5.90;4.47;;;;;;;17.62;100.00;100339.03;5009737;28;20158;-78
2023/07/28 00:33:05;;;;;;;5.45;4.47;;;;;;;17.60;100.00;100335.66;4988473;28;20436;-79
2023/07/28 00:35:32;;;;;;;4.88;3.78;;;;;;;17.61;100.00;100332.00;5005599;28;21298;-80
2023/07/28 00:37:59;;;;;;;4.53;4.13;;;;;;;17.61;100.00;100332.00;5008548;28;20046;-80
2023/07/28 00:40:27;;;;;;;5.93;4.00;;;;;;;17.62;100.00;100333.72;5007538;28;20041;-79
2023/07/28 00:42:54;;;;;;;4.50;4.10;;;;;;;17.61;100.00;100342.66;4989275;28;20061;-78
2023/07/28 00:45:22;;;;;;;5.15;4.65;;;;;;;17.63;100.00;100340.75;4999015;28;20085;-79
2023/07/28 00:47:49;;;;;;;4.72;4.22;;;;;;;17.63;100.00;100344.28;5009154;28;20046;-79
2023/07/28 00:50:17;;;;;;;5.10;4.07;;;;;;;17.64;100.00;100343.34;4991722;28;20141;-78
2023/07/28 00:52:46;;;;;;;5.57;4.68;;;;;;;17.64;100.00;100342.47;5012189;28;20088;-79
2023/07/28 00:55:13;;;;;;;4.85;4.30;;;;;;;17.65;100.00;100344.16;5004932;28;20042;-78
2023/07/28 00:57:40;;;;;;;5.55;4.97;;;;;;;17.63;100.00;100338.97;5009099;28;20132;-78
2023/07/28 01:00:09;;;;;;;5.70;5.10;;;;;;;17.64;100.00;100346.00;4992176;28;20049;-76
2023/07/28 01:02:37;;;;;;;5.78;4.93;;;;;;;17.65;100.00;100342.34;5004847;28;20042;-79
2023/07/28 01:05:05;;;;;;;4.97;4.47;;;;;;;17.65;100.00;100352.16;4991449;28;20568;-79
2023/07/28 01:08:05;;;;;;;5.50;5.00;;;;;;;17.66;100.00;100351.22;5002937;28;20127;-83
2023/07/28 01:10:33;;;;;;;6.57;5.18;;;;;;;17.64;100.00;100362.00;4991338;28;20034;-84
2023/07/28 01:13:00;;;;;;;6.10;5.38;;;;;;;17.66;100.00;100359.22;5012959;28;20044;-81
2023/07/28 01:15:27;;;;;;;6.13;5.35;;;;;;;17.68;100.00;100355.47;5007508;28;20041;-80
2023/07/28 01:17:54;;;;;;;6.75;5.30;;;;;;;17.69;100.00;100353.69;4986171;28;20697;-78
2023/07/28 01:20:28;;;;;;;6.22;5.63;;;;;;;17.69;100.00;100359.84;4987676;28;20041;-77
2023/07/28 01:23:23;;;;;;;5.78;5.18;;;;;;;17.70;100.00;100356.22;4971202;28;20092;-77
2023/07/28 01:26:08;;;;;;;6.57;5.80;;;;;;;17.73;100.00;100357.81;5006311;28;20088;-80
2023/07/28 01:28:39;;;;;;;6.78;6.18;;;;;;;17.73;100.00;100356.97;4987257;28;20041;-76
2023/07/28 01:31:08;;;;;;;6.95;6.25;;;;;;;17.72;100.00;100361.44;5004353;28;20046;-77
2023/07/28 01:33:35;;;;;;;5.97;5.47;;;;;;;17.70;100.00;100356.22;4987974;28;20498;-79
2023/07/28 01:36:03;;;;;;;6.70;6.05;;;;;;;17.70;100.00;100358.91;5003009;28;20038;-79
2023/07/28 01:38:30;;;;;;;7.65;6.40;;;;;;;17.70;100.00;100355.38;5006219;28;20132;-78
2023/07/28 01:40:58;;;;;;;9.73;6.38;;;;;;;17.72;100.00;100360.59;5006572;28;20062;-77
2023/07/28 01:43:25;;;;;;;6.93;6.15;;;;;;;17.72;100.00;100355.28;5002721;28;20149;-71
2023/07/28 01:45:52;;;;;;;6.32;5.72;;;;;;;17.72;100.00;100350.78;5013128;28;20073;-78
2023/07/28 01:48:20;;;;;;;6.32;5.72;;;;;;;17.74;100.00;100358.69;4989237;28;20046;-79
2023/07/28 01:50:47;;;;;;;8.18;6.13;;;;;;;17.76;100.00;100362.97;5009203;28;20042;-79
2023/07/28 01:53:14;;;;;;;7.15;6.22;;;;;;;17.80;100.00;100363.59;5008366;28;20414;-79
2023/07/28 01:55:41;;;;;;;6.82;6.13;;;;;;;17.80;100.00;100360.94;5006341;28;20050;-79
2023/07/28 01:58:09;;;;;;;7.00;6.40;;;;;;;17.81;100.00;100362.63;4970516;28;20069;-79
2023/07/28 02:00:37;;;;;;;7.88;6.63;;;;;;;17.81;100.00;100365.31;5005168;28;20043;-78
2023/07/28 02:03:04;;;;;;;7.75;6.57;;;;;;;17.81;100.00;100358.16;4993142;28;20041;-80
2023/07/28 02:05:32;;;;;;;8.85;6.82;;;;;;;17.79;100.00;100354.75;5007261;28;20096;-80
2023/07/28 02:07:59;;;;;;;9.20;6.90;;;;;;;17.80;100.00;100352.94;4990162;28;20687;-81
2023/07/28 02:10:28;;;;;;;9.63;7.28;;;;;;;17.80;100.00;100347.59;4996575;28;20454;-80
2023/07/28 02:12:55;;;;;;;10.45;7.45;;;;;;;17.78;100.00;100349.50;4972775;28;20301;-80
2023/07/28 02:15:23;;;;;;;9.05;7.25;;;;;;;17.78;100.00;100346.84;5023123;28;20132;-77
2023/07/28 02:17:51;;;;;;;10.13;8.20;;;;;;;17.76;100.00;100349.63;4979380;28;20041;-77
2023/07/28 02:20:18;;;;;;;9.07;8.18;;;;;;;17.76;100.00;100357.63;5005291;28;20044;-78
2023/07/28 02:22:46;;;;;;;11.40;8.00;;;;;;;17.74;100.00;100354.19;5007489;28;20050;-77
2023/07/28 02:25:14;;;;;;;9.27;8.10;;;;;;;17.73;100.00;100355.16;5002420;28;20050;-77
2023/07/28 02:27:41;;;;;;;9.32;8.32;;;;;;;17.74;100.00;100354.19;4985265;28;21425;-78
2023/07/28 02:30:08;;;;;;;10.02;8.10;;;;;;;17.74;100.00;100351.53;5005219;28;20516;-78
2023/07/28 02:32:37;;;;;;;8.90;7.38;;;;;;;17.75;100.00;100355.06;5007142;28;20053;-78
2023/07/28 02:35:05;;;;;;;11.10;8.25;;;;;;;17.73;100.00;100351.66;4992868;28;20049;-78
2023/07/28 02:37:32;;;;;;;9.90;8.57;;;;;;;17.71;100.00;100346.41;4987487;28;20058;-77
2023/07/28 02:40:00;;;;;;;10.25;8.52;;;;;;;17.70;100.00;100353.56;5005237;28;20096;-77
2023/07/28 02:42:27;;;;;;;10.52;8.43;;;;;;;17.69;100.00;100353.69;4987349;28;20053;-78
2023/07/28 02:44:54;;;;;;;10.32;8.90;;;;;;;17.68;100.00;100355.47;5004980;28;20409;-77
2023/07/28 02:47:21;;;;;;;11.90;8.73;;;;;;;17.69;100.00;100357.19;4983571;28;20125;-78
2023/07/28 02:49:48;;;;;;;13.13;9.32;;;;;;;17.71;100.00;100365.06;4986665;28;20034;-79
2023/07/28 02:52:15;;;;;;;11.35;8.88;;;;;;;17.70;100.00;100361.56;4993452;28;20080;-79
2023/07/28 02:54:42;;;;;;;11.60;9.23;;;;;;;17.72;100.00;100366.78;4988045;28;20042;-78
2023/07/28 02:57:09;;;;;;;12.05;8.13;;;;;;;17.74;100.00;100374.69;4985789;28;20042;-78
2023/07/28 02:59:42;;;;;;;10.85;8.55;;;;;;;17.75;100.00;100376.41;5000785;28;20042;-80
2023/07/28 03:02:09;;;;;;;10.52;8.70;;;;;;;17.75;100.00;100374.56;4986692;28;20156;-79
2023/07/28 03:04:36;;;;;;;11.73;8.88;;;;;;;17.73;100.00;100375.66;5006223;28;20046;-80
2023/07/28 03:07:16;;;;;;;10.68;8.63;;;;;;;17.74;100.00;100380.03;5012431;28;20053;-80
2023/07/28 03:09:46;;;;;;;11.20;8.77;;;;;;;17.73;100.00;100387.16;5009948;28;20050;-78
2023/07/28 03:12:15;;;;;;;10.93;8.57;;;;;;;17.73;100.00;100387.16;5013227;28;20096;-80
2023/07/28 03:14:42;;;;;;;10.73;8.20;;;;;;;17.74;100.00;100380.84;4990023;28;20143;-79
2023/07/28 03:17:09;;;;;;;10.35;8.45;;;;;;;17.74;100.00;100385.34;4994841;28;20100;-79
2023/07/28 03:19:37;;;;;;;10.15;8.00;;;;;;;17.73;100.00;100384.47;4986431;28;20057;-79
2023/07/28 03:22:04;;;;;;;10.90;8.23;;;;;;;17.73;100.00;100380.97;4998897;28;20524;-79
2023/07/28 03:24:31;;;;;;;9.75;8.35;;;;;;;17.73;100.00;100376.47;5002807;28;20137;-79
2023/07/28 03:26:58;;;;;;;11.05;8.43;;;;;;;17.72;100.00;100381.94;4995659;28;20038;-78
2023/07/28 03:29:25;;;;;;;9.85;8.10;;;;;;;17.72;100.00;100376.59;4992697;28;20509;-79
2023/07/28 03:31:53;;;;;;;11.18;8.27;;;;;;;17.70;100.00;100380.22;5012938;28;20034;-79
2023/07/28 03:34:20;;;;;;;14.85;9.25;;;;;;;17.70;100.00;100366.88;5015227;28;20084;-79
2023/07/28 03:36:48;;;;;;;10.90;8.18;;;;;;;17.74;100.00;100369.34;4993772;28;20046;-80
2023/07/28 03:39:16;;;;;;;11.98;8.48;;;;;;;17.74;100.00;100370.19;4994213;28;20049;-79
2023/07/28 03:41:46;;;;;;;12.95;9.18;;;;;;;17.74;100.00;100372.88;4990836;28;20047;-80
2023/07/28 03:44:15;;;;;;;11.27;8.57;;;;;;;17.74;100.00;100383.53;4993668;28;20740;-81
2023/07/28 03:46:43;;;;;;;12.48;8.63;;;;;;;17.73;100.00;100397.81;4966088;28;20046;-79
2023/07/28 03:49:10;;;;;;;11.88;8.90;;;;;;;17.71;100.00;100391.72;4975982;28;20081;-78
2023/07/28 03:51:38;;;;;;;10.98;8.80;;;;;;;17.73;100.00;100396.97;4974207;28;20045;-78
2023/07/28 03:54:05;;;;;;;11.05;8.63;;;;;;;17.73;100.00;100399.63;4989322;28;20062;-78
2023/07/28 03:56:32;;;;;;;14.07;9.25;;;;;;;17.74;100.00;100394.19;4970584;28;20511;-78
2023/07/28 03:59:00;;;;;;;12.73;9.05;;;;;;;17.75;100.00;100397.72;4986351;28;20066;-79
2023/07/28 04:01:27;;;;;;;12.88;9.13;;;;;;;17.75;100.00;100395.06;4973398;28;20047;-77
2023/07/28 04:03:55;;;;;;;15.40;9.52;;;;;;;17.77;100.00;100403.78;4971907;28;20049;-77
2023/07/28 04:06:43;;;;;;;15.55;9.32;;;;;;;17.78;100.00;100402.81;4972867;28;20062;-78
2023/07/28 04:09:13;;;;;;;16.67;9.52;;;;;;;17.80;100.00;100406.25;4964645;28;20046;-78
2023/07/28 04:11:42;;;;;;;15.80;10.02;;;;;;;17.78;100.00;100402.81;4973312;28;20042;-78
2023/07/28 04:14:10;;;;;;;15.57;10.25;;;;;;;17.79;100.00;100401.88;4971063;28;20065;-78
2023/07/28 04:16:37;;;;;;;15.93;9.80;;;;;;;17.80;100.00;100401.78;4972443;28;20050;-79
2023/07/28 04:19:05;;;;;;;13.43;9.60;;;;;;;17.80;100.00;100408.91;4967610;28;20074;-78
2023/07/28 04:21:32;;;;;;;16.60;10.80;;;;;;;17.84;100.00;100410.44;4985838;28;20247;-79
2023/07/28 04:23:59;;;;;;;15.48;10.15;;;;;;;17.82;100.00;100405.19;4981641;28;20040;-77
2023/07/28 04:26:27;;;;;;;16.25;10.18;;;;;;;17.82;100.00;100413.19;4965794;28;20138;-78
2023/07/28 04:28:59;;;;;;;15.60;10.30;;;;;;;17.84;100.00;100418.44;4966670;28;20052;-78
2023/07/28 04:31:27;;;;;;;17.10;11.00;;;;;;;17.84;100.00;100419.28;4965437;28;20160;-79
2023/07/28 04:34:03;;;;;;;16.65;10.45;;;;;;;17.84;100.00;100421.09;4963816;28;20047;-78
2023/07/28 04:36:50;;;;;;;19.35;11.45;;;;;;;17.87;100.00;100420.03;4960573;28;20051;-78
2023/07/28 04:39:23;;;;;;;18.42;11.43;;;;;;;17.85;100.00;100415.66;4943621;28;20059;-79
2023/07/28 04:41:51;;;;;;;23.17;11.73;;;;;;;17.88;100.00;100411.91;4968192;28;20035;-78
2023/07/28 04:44:20;;;;;;;18.98;11.98;;;;;;;17.89;100.00;100408.28;4963454;28;20039;-78
2023/07/28 04:46:48;;;;;;;20.30;11.93;;;;;;;17.90;100.00;100419.81;4990238;28;20395;-79
2023/07/28 04:49:15;;;;;;;18.52;12.40;;;;;;;17.90;100.00;100430.50;4989617;28;20330;-78
2023/07/28 04:52:07;;;;;;;20.17;11.75;;;;;;;17.93;100.00;100423.13;5006998;28;20104;-77
2023/07/28 04:54:37;;;;;;;24.73;13.10;;;;;;;17.94;100.00;100424.84;4999246;28;20410;-80
2023/07/28 04:57:04;;;;;;;21.23;12.68;;;;;;;17.96;100.00;100419.41;5001883;28;20045;-79
2023/07/28 04:59:34;;;;;;;22.88;13.30;;;;;;;17.97;100.00;100421.13;5003247;28;20634;-77
2023/07/28 05:02:01;;;;;;;21.45;13.00;;;;;;;17.99;100.00;100419.22;4990051;28;20092;-84
2023/07/28 05:04:29;;;;;;;20.25;12.23;;;;;;;18.01;100.00;100414.63;4988032;28;20050;-72
2023/07/28 05:06:56;;;;;;;17.33;11.65;;;;;;;18.07;100.00;100416.00;5002972;28;20046;-70
2023/07/28 05:09:23;;;;;;;19.77;12.15;;;;;;;18.13;100.00;100412.94;5005643;28;20594;-70
2023/07/28 05:11:50;;;;;;;20.58;12.98;;;;;;;18.16;100.00;100418.91;5006113;28;20557;-70
2023/07/28 05:14:17;;;;;;;22.80;13.32;;;;;;;18.16;100.00;100415.41;5004073;28;20058;-70
2023/07/28 05:16:44;;;;;;;19.67;12.65;;;;;;;18.18;100.00;100418.81;5005053;28;20042;-62
2023/07/28 05:19:15;;;;;;;23.15;13.05;;;;;;;18.18;100.00;100426.81;5006570;28;20049;-70
2023/07/28 05:21:51;;;;;;;19.77;12.15;;;;;;;18.20;100.00;100426.72;5004700;28;20124;-70
2023/07/28 05:24:24;;;;;;;19.73;12.68;;;;;;;18.21;100.00;100434.59;4991081;28;20092;-70
2023/07/28 05:26:54;;;;;;;22.88;12.60;;;;;;;18.23;100.00;100450.50;4988352;28;20074;-71
2023/07/28 05:29:23;;;;;;;20.10;12.80;;;;;;;18.22;100.00;100452.31;5008539;28;20037;-70
2023/07/28 05:31:53;;;;;;;22.42;13.27;;;;;;;18.24;100.00;100453.06;4991634;28;20038;-70
2023/07/28 05:34:30;;;;;;;21.95;13.40;;;;;;;18.23;100.00;100455.81;4990975;28;20040;-71
2023/07/28 05:36:57;;;;;;;22.25;13.43;;;;;;;18.23;100.00;100462.03;4982375;28;20060;-69
2023/07/28 05:39:29;;;;;;;18.92;12.85;;;;;;;18.25;100.00;100457.44;4987820;28;20073;-72
2023/07/28 05:41:56;;;;;;;23.65;13.32;;;;;;;18.28;100.00;100456.38;5000757;28;20041;-71
2023/07/28 05:44:23;;;;;;;17.88;12.35;;;;;;;18.27;100.00;100465.34;5003375;28;20100;-71
2023/07/28 05:46:50;;;;;;;18.75;11.80;;;;;;;18.28;100.00;100467.91;5005238;28;20038;-72
2023/07/28 05:49:18;;;;;;;19.20;12.35;;;;;;;18.33;100.00;100477.41;5004723;28;20034;-71
2023/07/28 05:51:45;;;;;;;21.10;13.25;;;;;;;18.37;100.00;100473.56;4988001;28;20567;-71
2023/07/28 05:54:16;;;;;;;21.05;11.80;;;;;;;18.41;100.00;100481.28;4984805;28;20069;-71
2023/07/28 05:56:46;;;;;;;20.13;12.18;;;;;;;18.44;100.00;100482.88;5007336;28;20079;-71
2023/07/28 05:59:14;;;;;;;15.55;11.70;;;;;;;18.46;100.00;100478.28;5007278;28;20052;-71
2023/07/28 06:01:41;;;;;;;21.67;12.43;;;;;;;18.49;100.00;100482.53;5001455;28;20633;-71
2023/07/28 06:04:18;;;;;;;17.98;11.50;;;;;;;18.50;100.00;100487.75;4990685;28;20045;-71
2023/07/28 06:06:50;;;;;;;21.85;12.57;;;;;;;18.54;100.00;100489.28;4989266;28;20065;-70
2023/07/28 06:09:17;;;;;;;17.67;11.63;;;;;;;18.57;100.00;100486.38;4988505;28;20049;-71
2023/07/28 06:11:45;;;;;;;15.48;10.90;;;;;;;18.57;100.00;100486.38;4991992;28;20405;-70
2023/07/28 06:14:13;;;;;;;16.25;11.45;;;;;;;18.58;100.00;100495.25;4996004;28;20045;-71
2023/07/28 06:16:40;;;;;;;20.08;11.85;;;;;;;18.59;100.00;100489.78;4989731;28;20037;-70
2023/07/28 06:19:09;;;;;;;16.25;10.88;;;;;;;18.61;100.00;100485.19;4985349;28;20088;-72
2023/07/28 06:21:38;;;;;;;15.45;10.93;;;;;;;18.65;100.00;100487.66;4979915;28;20034;-71
2023/07/28 06:24:05;;;;;;;20.15;11.55;;;;;;;18.67;100.00;100483.91;4991504;28;20052;-71
2023/07/28 06:26:32;;;;;;;18.83;11.00;;;;;;;18.69;100.00;100486.47;5001330;28;20043;-71
2023/07/28 06:29:02;;;;;;;18.92;11.65;;;;;;;18.68;100.00;100487.44;4995050;28;20070;-71
2023/07/28 06:31:29;;;;;;;20.48;11.25;;;;;;;18.68;100.00;100493.63;5008681;28;20038;-71
2023/07/28 06:33:57;;;;;;;20.33;10.88;;;;;;;18.74;100.00;100492.34;4986517;28;20064;-71
2023/07/28 06:36:25;;;;;;;18.15;11.52;;;;;;;18.77;100.00;100498.34;5005033;28;20514;-71
2023/07/28 06:38:54;;;;;;;18.40;10.82;;;;;;;18.82;100.00;100498.00;4991838;28;20042;-71
2023/07/28 06:41:22;;;;;;;15.88;10.70;;;;;;;18.88;100.00;100502.06;4990771;28;20038;-71
2023/07/28 06:43:55;;;;;;;23.00;11.63;;;;;;;18.92;100.00;100501.75;4990920;28;20607;-71
2023/07/28 06:46:22;;;;;;;20.10;11.88;;;;;;;18.97;100.00;100501.44;5000615;28;20095;-70
2023/07/28 06:48:49;;;;;;;17.52;12.18;;;;;;;19.05;100.00;100503.56;4995104;28;20126;-75
2023/07/28 06:51:16;;;;;;;22.27;12.32;;;;;;;19.14;100.00;100504.72;4969788;28;20051;-74
2023/07/28 06:53:44;;;;;;;21.08;13.13;;;;;;;19.22;100.00;100510.38;4986086;28;20046;-75
2023/07/28 06:56:11;;;;;;;20.10;12.60;;;;;;;19.30;100.00;100510.69;4987083;28;20601;-74
2023/07/28 06:58:38;;;;;;;21.55;13.75;;;;;;;19.36;100.00;100510.22;4985254;28;20046;-75
2023/07/28 07:01:05;;;;;;;20.10;13.63;;;;;;;19.44;100.00;100509.66;5000370;28;20053;-74
2023/07/28 07:03:32;;;;;;;20.08;13.75;;;;;;;19.49;100.00;100518.19;4987390;28;20053;-75
2023/07/28 07:05:59;;;;;;;22.83;14.13;;;;;;;19.54;100.00;100523.19;4985735;28;20051;-74
2023/07/28 07:08:27;;;;;;;21.60;14.02;;;;;;;19.54;100.00;100515.19;4979624;28;20701;-74
2023/07/28 07:10:54;;;;;;;20.38;14.75;;;;;;;19.55;100.00;100515.09;4969009;28;20042;-74
2023/07/28 07:13:21;;;;;;;19.17;14.18;;;;;;;19.57;100.00;100522.97;4984436;28;20052;-74
2023/07/28 07:15:48;;;;;;;22.73;14.85;;;;;;;19.64;100.00;100528.75;4992676;28;20137;-74
2023/07/28 07:18:15;;;;;;;23.20;15.93;;;;;;;19.69;100.00;100531.91;4971135;28;20487;-75
2023/07/28 07:20:43;;;;;;;27.25;16.50;;;;;;;19.71;100.00;100533.53;4987064;28;20109;-75
2023/07/28 07:23:10;;;;;;;23.00;16.58;;;;;;;19.67;100.00;100528.53;4967982;28;20039;-74
2023/07/28 07:25:37;;;;;;;23.58;15.57;;;;;;;19.68;100.00;100544.44;4974443;28;20125;-74
2023/07/28 07:28:04;;;;;;;21.95;16.55;;;;;;;19.72;100.00;100542.38;4995917;28;20054;-75
2023/07/28 07:30:33;;;;;;;27.40;17.05;;;;;;;19.76;100.00;100546.56;4984556;28;20458;-74
2023/07/28 07:33:01;;;;;;;28.67;17.83;;;;;;;19.80;100.00;100541.84;4999633;28;20041;-74
2023/07/28 07:35:28;;;;;;;26.38;17.33;;;;;;;19.82;100.00;100545.25;4987860;28;20088;-74
2023/07/28 07:37:55;;;;;;;27.40;18.20;;;;;;;19.82;100.00;100547.94;4986710;28;20042;-74
2023/07/28 07:40:23;;;;;;;27.65;18.33;;;;;;;19.82;100.00;100551.44;4987785;28;20436;-75
2023/07/28 07:42:53;;;;;;;28.00;18.65;;;;;;;19.85;100.00;100558.38;4986669;28;20046;-75
2023/07/28 07:45:20;;;;;;;27.40;18.65;;;;;;;19.88;100.00;100558.19;5008592;28;20767;-75
2023/07/28 07:47:49;;;;;;;26.67;18.00;;;;;;;19.92;100.00;100554.34;4985266;28;20057;-74
2023/07/28 07:50:16;;;;;;;29.52;18.20;;;;;;;19.96;100.00;100560.31;4987953;28;20100;-75
2023/07/28 07:52:43;;;;;;;27.45;18.30;;;;;;;20.02;100.00;100559.84;4988810;28;20445;-75
2023/07/28 07:55:11;;;;;;;31.45;18.63;;;;;;;20.07;100.00;100556.81;4990304;28;20050;-74
2023/07/28 07:57:40;;;;;;;36.65;18.80;;;;;;;20.12;100.00;100563.53;4990929;28;20042;-74
2023/07/28 08:00:08;;;;;;;30.52;17.83;;;;;;;20.20;100.00;100562.97;5014032;28;20042;-74
2023/07/28 08:02:38;;;;;;;30.23;16.65;;;;;;;20.26;99.67;100557.13;4988028;28;20038;-75
2023/07/28 08:05:09;;;;;;;25.23;17.75;;;;;;;20.31;99.46;100563.00;4990056;28;20061;-75
2023/07/28 08:07:37;;;;;;;27.67;17.15;;;;;;;20.36;99.73;100559.09;4989993;28;20038;-75
2023/07/28 08:10:04;;;;;;;31.23;17.92;;;;;;;20.42;98.45;100559.50;5004228;28;20093;-75
2023/07/28 08:12:32;;;;;;;22.60;15.35;;;;;;;20.42;97.54;100566.69;4989002;28;20038;-75
2023/07/28 08:14:59;;;;;;;27.20;15.57;;;;;;;20.39;97.54;100567.78;4983017;28;20517;-75
2023/07/28 08:17:26;;;;;;;26.55;14.55;;;;;;;20.34;96.49;100572.63;4984345;28;20075;-75
2023/07/28 08:19:53;;;;;;;24.88;15.75;;;;;;;20.29;96.61;100574.81;4987550;28;20093;-74
2023/07/28 08:22:20;;;;;;;21.00;14.30;;;;;;;20.24;96.85;100575.16;4987981;28;20039;-75
2023/07/28 08:24:47;;;;;;;24.98;14.80;;;;;;;20.28;97.37;100575.78;4981875;28;20530;-75
2023/07/28 08:27:14;;;;;;;23.42;14.75;;;;;;;20.35;97.71;100578.84;4985371;28;20121;-75
2023/07/28 08:29:42;;;;;;;27.02;14.30;;;;;;;20.40;98.20;100579.31;4989829;28;20039;-75
2023/07/28 08:32:09;;;;;;;24.33;14.43;;;;;;;20.44;97.75;100578.13;4991833;28;20042;-75
2023/07/28 08:34:36;;;;;;;21.08;14.70;;;;;;;20.52;97.02;100586.44;5000910;28;20053;-74
2023/07/28 08:37:03;;;;;;;21.98;14.27;;;;;;;20.61;96.30;100580.38;4990072;28;20073;-74
2023/07/28 08:39:30;;;;;;;22.25;13.80;;;;;;;20.68;96.60;100585.22;4990485;28;20592;-74
2023/07/28 08:42:02;;;;;;;19.55;12.90;;;;;;;20.70;96.96;100594.00;5005930;28;20038;-75
2023/07/28 08:44:32;;;;;;;18.85;12.68;;;;;;;20.62;96.41;100595.47;4987884;28;20060;-75
2023/07/28 08:47:04;;;;;;;25.83;13.10;;;;;;;20.59;96.02;100602.88;4997240;28;20045;-74
2023/07/28 08:49:36;;;;;;;18.45;12.57;;;;;;;20.60;94.28;100607.28;5007383;28;20470;-75
2023/07/28 08:52:06;;;;;;;20.92;12.13;;;;;;;20.63;96.04;100607.88;5008691;28;20045;-74
2023/07/28 08:54:34;;;;;;;18.45;11.85;;;;;;;20.76;95.68;100607.81;4991524;28;20686;-75
2023/07/28 08:57:02;;;;;;;32.65;12.90;;;;;;;20.90;94.52;100606.75;5009363;28;20056;-74
2023/07/28 08:59:29;;;;;;;26.48;12.77;;;;;;;21.08;94.38;100608.94;5004966;28;20048;-74
2023/07/28 09:01:59;;;;;;;23.38;11.13;;;;;;;21.16;93.97;100605.69;4985165;28;20520;-75
2023/07/28 09:04:28;;;;;;;23.15;11.38;;;;;;;21.17;94.49;100613.59;5005712;28;20073;-74
2023/07/28 09:06:55;;;;;;;15.73;9.88;;;;;;;21.26;93.11;100612.00;4992387;28;20072;-75
2023/07/28 09:09:23;;;;;;;13.45;9.60;;;;;;;21.31;90.93;100617.88;5009677;28;20046;-74
2023/07/28 09:11:53;;;;;;;15.70;9.75;;;;;;;21.40;91.41;100611.78;4988424;28;20042;-74
2023/07/28 09:14:25;;;;;;;19.20;9.77;;;;;;;21.50;89.76;100619.09;4988568;28;20088;-75
2023/07/28 09:16:53;;;;;;;12.05;9.75;;;;;;;21.54;89.80;100617.84;5003635;28;20072;-75
2023/07/28 09:19:22;;;;;;;13.90;9.77;;;;;;;21.59;89.50;100615.69;4993666;28;20049;-74
2023/07/28 09:22:01;;;;;;;15.82;9.50;;;;;;;21.68;88.57;100609.59;4992650;28;20038;-74
2023/07/28 09:24:32;;;;;;;23.80;10.75;;;;;;;21.81;88.94;100608.59;4990028;28;20077;-74
2023/07/28 09:27:02;;;;;;;12.55;9.13;;;;;;;21.95;88.73;100608.28;5004431;28;20124;-75
2023/07/28 09:29:30;;;;;;;11.85;8.95;;;;;;;22.08;88.51;100616.19;5001156;28;20058;-74
2023/07/28 09:32:06;;;;;;;10.18;8.73;;;;;;;22.13;87.72;100616.66;5006989;28;20061;-74
2023/07/28 09:34:34;;;;;;;10.48;8.68;;;;;;;;;;4981307;28;20040;-74
2023/07/28 09:37:09;;;;;;;10.70;8.30;;;;;;;22.16;86.21;100616.41;5006803;28;20054;-74
2023/07/28 09:39:36;;;;;;;13.55;8.30;;;;;;;22.27;86.79;100614.69;5003315;28;20046;-75
2023/07/28 09:42:09;;;;;;;50.83;12.23;;;;;;;22.32;86.31;100620.50;5011683;28;20509;-75
2023/07/28 09:44:36;;;;;;;33.50;10.13;;;;;;;22.32;84.78;100618.69;5007511;28;20033;-75
2023/07/28 09:47:06;;;;;;;34.45;10.55;;;;;;;22.32;85.12;100628.56;4986196;28;20691;-74
2023/07/28 09:49:39;;;;;;;22.13;8.90;;;;;;;22.30;85.49;100619.78;5005611;28;20418;-75
2023/07/28 09:52:10;;;;;;;16.58;9.13;;;;;;;22.29;86.79;100621.63;5008290;28;20049;-75
2023/07/28 09:54:46;;;;;;;13.75;9.18;;;;;;;22.30;87.20;100617.94;5008798;28;20046;-75
2023/07/28 09:57:20;;;;;;;11.60;8.80;;;;;;;22.28;83.64;100619.06;5014135;28;20048;-74
2023/07/28 09:59:48;;;;;;;12.75;8.68;;;;;;;22.14;84.70;100617.50;5009468;28;20046;-75
2023/07/28 10:02:16;;;;;;;20.20;10.82;;;;;;;22.16;84.65;100623.59;5007521;28;20562;-74
2023/07/28 10:04:44;;;;;;;13.82;9.07;;;;;;;22.40;85.97;100623.41;5008894;28;20053;-75
2023/07/28 10:07:12;;;;;;;28.38;11.02;;;;;;;22.67;86.51;100627.47;5011004;28;20748;-75
2023/07/28 10:09:40;;;;;;;27.75;11.73;;;;;;;22.82;85.27;100630.66;4972329;28;20510;-76
2023/07/28 10:12:19;;;;;;;14.27;9.80;;;;;;;22.82;83.89;100632.50;5009207;28;20045;-75
2023/07/28 10:14:46;;;;;;;13.80;9.68;;;;;;;22.80;84.38;100635.31;5008185;28;20046;-75
2023/07/28 10:17:17;;;;;;;13.40;10.55;;;;;;;22.77;82.57;100630.19;4975058;28;20061;-75
2023/07/28 10:19:44;;;;;;;15.77;10.00;;;;;;;22.74;83.00;100628.63;5008354;28;20044;-75
2023/07/28 10:22:11;;;;;;;13.63;10.30;;;;;;;22.75;83.06;100629.47;5007893;28;20037;-75
2023/07/28 10:25:01;;;;;;;13.85;9.48;;;;;;;22.83;83.08;100636.88;5001295;28;20506;-75
2023/07/28 10:27:38;;;;;;;21.23;10.70;;;;;;;22.79;83.99;100631.75;4984962;28;20038;-75
2023/07/28 10:30:13;;;;;;;12.88;9.55;;;;;;;22.78;82.74;100638.16;5009920;28;20076;-75
2023/07/28 10:32:43;;;;;;;38.15;12.00;;;;;;;22.78;82.50;100634.59;5007121;28;20038;-75
2023/07/28 10:35:14;;;;;;;11.55;10.38;;;;;;;22.92;81.95;100633.41;5003332;28;20056;-75
2023/07/28 10:37:48;;;;;;;20.40;10.80;;;;;;;23.17;81.33;100633.97;5015660;28;20061;-75
2023/07/28 10:40:35;;;;;;;20.25;11.30;;;;;;;23.44;81.18;100629.88;5007880;28;20042;-75
2023/07/28 10:43:04;;;;;;;33.67;12.88;;;;;;;23.67;80.88;100634.06;4976705;28;20065;-75
2023/07/28 10:45:32;;;;;;;29.33;11.63;;;;;;;23.84;81.02;100629.00;4987113;28;20056;-75
2023/07/28 10:48:00;;;;;;;18.20;11.40;;;;;;;23.89;77.86;100640.22;4990291;28;20170;-75
2023/07/28 10:50:32;;;;;;;14.23;10.73;;;;;;;23.76;77.83;100634.22;5002283;28;20042;-75
2023/07/28 10:52:59;;;;;;;14.63;11.15;;;;;;;23.58;77.48;100629.50;5007357;28;20062;-75
2023/07/28 10:55:27;;;;;;;36.28;13.05;;;;;;;23.51;78.29;100636.41;5007762;28;20037;-75
2023/07/28 10:57:58;;;;;;;52.08;15.90;;;;;;;23.65;79.41;100625.28;5007903;28;20497;-75
2023/07/28 11:00:25;;;;;;;18.90;10.52;;;;;;;24.01;79.20;100627.50;5006389;28;20737;-75
2023/07/28 11:02:54;;;;;;;36.95;12.43;;;;;;;24.49;78.39;100629.38;4988931;28;20034;-75
2023/07/28 11:05:29;;;;;;;11.32;10.13;;;;;;;24.73;76.37;100628.09;5000734;28;20107;-75
2023/07/28 11:08:00;;;;;;;12.00;9.93;;;;;;;24.86;72.94;100632.34;5006219;28;20335;-75
2023/07/28 11:10:32;;;;;;;18.33;10.45;;;;;;;24.84;74.67;100627.09;5003477;28;20116;-75
2023/07/28 11:13:03;;;;;;;19.25;9.70;;;;;;;24.84;73.16;100628.94;4986658;28;20561;-75
2023/07/28 11:15:51;;;;;;;17.63;9.90;;;;;;;24.81;73.19;100622.84;4992665;28;20252;-75
2023/07/28 11:18:18;;;;;;;11.50;10.30;;;;;;;24.76;73.93;100617.06;5003147;28;20510;-76